createdAt,value
2023-05-10T00:00:14.175Z,100861.63
2023-05-10T00:02:41.662Z,100861.78
2023-05-10T00:05:08.692Z,100852.81
2023-05-10T00:07:35.225Z,100849.06
2023-05-10T00:10:01.743Z,100846.34
2023-05-10T00:12:28.262Z,100855.41
2023-05-10T00:14:54.795Z,100845.97
2023-05-10T00:17:21.450Z,100842.69
2023-05-10T00:19:47.996Z,100853.38
2023-05-10T00:22:14.495Z,100852.34
2023-05-10T00:24:41.026Z,100853.22
2023-05-10T00:27:07.505Z,100845.25
2023-05-10T00:29:34.854Z,100859.34
2023-05-10T00:32:01.507Z,100856.69
2023-05-10T00:34:28.210Z,100846.09
2023-05-10T00:36:54.857Z,100855.09
2023-05-10T00:39:21.481Z,100854.13
2023-05-10T00:41:48.087Z,100861.06
2023-05-10T00:44:14.717Z,100860.06
2023-05-10T00:46:41.583Z,100858.09
2023-05-10T00:49:08.262Z,100867.53
2023-05-10T00:51:34.937Z,100870.06
2023-05-10T00:54:01.470Z,100867.16
2023-05-10T00:56:29.466Z,100869.66
2023-05-10T00:58:56.758Z,100874.94
2023-05-10T01:01:23.419Z,100872.78
2023-05-10T01:03:50.007Z,100878.69
2023-05-10T01:06:16.538Z,100882.91
2023-05-10T01:08:43.215Z,100883.53
2023-05-10T01:11:09.927Z,100874.66
2023-05-10T01:13:38.447Z,100880.72
2023-05-10T01:16:05.876Z,100873.59
2023-05-10T01:18:34.477Z,100886.00
2023-05-10T01:21:14.546Z,100880.47
2023-05-10T01:24:10.660Z,100883.19
2023-05-10T01:27:11.428Z,100891.78
2023-05-10T01:30:14.147Z,100889.81
2023-05-10T01:32:52.139Z,100890.69
2023-05-10T01:36:04.967Z,100892.47
2023-05-10T01:38:57.688Z,100895.81
2023-05-10T01:41:56.322Z,100901.22
2023-05-10T01:44:30.977Z,100896.75
2023-05-10T01:47:21.039Z,100901.53
2023-05-10T01:49:52.333Z,100900.59
2023-05-10T01:52:27.335Z,100908.78
2023-05-10T01:55:02.153Z,100904.25
2023-05-10T01:57:29.025Z,100912.34
2023-05-10T01:59:56.023Z,100910.50
2023-05-10T02:02:23.901Z,100912.19
2023-05-10T02:04:51.678Z,100909.53
2023-05-10T02:07:18.744Z,100910.41
2023-05-10T02:09:48.993Z,100912.97
2023-05-10T02:12:16.619Z,100910.50
2023-05-10T02:14:44.095Z,100910.56
2023-05-10T02:17:10.982Z,100912.13
2023-05-10T02:19:39.580Z,100914.84
2023-05-10T02:22:06.298Z,100921.94
2023-05-10T02:24:33.742Z,100918.59
2023-05-10T02:27:00.901Z,100920.22
2023-05-10T02:29:28.282Z,100922.03
2023-05-10T02:31:56.205Z,100922.78
2023-05-10T02:34:24.324Z,100924.44
2023-05-10T02:36:52.262Z,100924.59
2023-05-10T02:39:20.130Z,100931.53
2023-05-10T02:41:47.904Z,100929.81
2023-05-10T02:44:16.640Z,100924.59
2023-05-10T02:46:43.144Z,100927.16
2023-05-10T02:49:09.688Z,100929.72
2023-05-10T02:51:38.758Z,100935.91
2023-05-10T02:54:11.674Z,100930.44
2023-05-10T02:56:44.042Z,100935.81
2023-05-10T02:59:10.555Z,100932.28
2023-05-10T03:01:37.085Z,100934.09
2023-05-10T03:04:03.741Z,100938.41
2023-05-10T03:06:30.378Z,100938.47
2023-05-10T03:08:57.475Z,100943.78
2023-05-10T03:11:46.383Z,100942.91
2023-05-10T03:14:27.994Z,100943.94
2023-05-10T03:16:59.972Z,100931.69
2023-05-10T03:19:34.189Z,100937.84
2023-05-10T03:22:05.952Z,100931.69
2023-05-10T03:24:34.167Z,100946.78
2023-05-10T03:27:03.773Z,100934.25
2023-05-10T03:29:31.773Z,100939.84
2023-05-10T03:32:01.562Z,100945.22
2023-05-10T03:34:30.981Z,100944.47
2023-05-10T03:36:57.471Z,100946.19
2023-05-10T03:39:23.988Z,100945.16
2023-05-10T03:41:50.457Z,100943.47
2023-05-10T03:44:17.397Z,100940.97
2023-05-10T03:46:44.016Z,100936.44
2023-05-10T03:49:10.571Z,100942.81
2023-05-10T03:51:37.261Z,100945.38
2023-05-10T03:54:03.930Z,100944.63
2023-05-10T03:56:31.048Z,100941.06
2023-05-10T03:58:57.566Z,100954.34
2023-05-10T04:01:24.062Z,100957.72
2023-05-10T04:03:50.807Z,100962.16
2023-05-10T04:06:17.576Z,100967.59
2023-05-10T04:08:44.111Z,100965.81
2023-05-10T04:11:13.229Z,100967.59
2023-05-10T04:13:39.744Z,100973.84
2023-05-10T04:16:06.539Z,100970.97
2023-05-10T04:18:33.113Z,100971.97
2023-05-10T04:20:59.630Z,100968.53
2023-05-10T04:23:26.160Z,100965.34
2023-05-10T04:25:52.736Z,100966.72
2023-05-10T04:28:19.317Z,100976.75
2023-05-10T04:30:46.696Z,100975.09
2023-05-10T04:33:13.251Z,100979.88
2023-05-10T04:35:41.030Z,100985.84
2023-05-10T04:38:07.821Z,100977.22
2023-05-10T04:40:35.220Z,100979.78
2023-05-10T04:43:01.755Z,100972.69
2023-05-10T04:45:28.256Z,100985.84
2023-05-10T04:47:54.854Z,100979.06
2023-05-10T04:50:21.403Z,100988.56
2023-05-10T04:52:47.916Z,100987.81
2023-05-10T04:55:14.702Z,100992.44
2023-05-10T04:57:41.281Z,100991.59
2023-05-10T05:00:08.446Z,101000.31
2023-05-10T05:02:35.161Z,101000.25
2023-05-10T05:05:01.892Z,101003.81
2023-05-10T05:07:28.447Z,101003.69
2023-05-10T05:09:54.973Z,100998.25
2023-05-10T05:12:21.508Z,101007.81
2023-05-10T05:14:48.004Z,101006.72
2023-05-10T05:17:14.541Z,101000.50
2023-05-10T05:19:41.073Z,101014.59
2023-05-10T05:22:08.812Z,101013.44
2023-05-10T05:24:39.148Z,101015.97
2023-05-10T05:27:06.889Z,101015.03
2023-05-10T05:29:33.426Z,101024.53
2023-05-10T05:32:00.278Z,101023.53
2023-05-10T05:34:26.993Z,101024.69
2023-05-10T05:36:53.514Z,101025.50
2023-05-10T05:39:20.021Z,101025.34
2023-05-10T05:41:47.623Z,101031.41
2023-05-10T05:44:14.132Z,101025.88
2023-05-10T05:46:40.731Z,101021.53
2023-05-10T05:49:07.492Z,101022.78
2023-05-10T05:51:34.034Z,101025.63
2023-05-10T05:54:00.585Z,101019.53
2023-05-10T05:56:27.152Z,101026.88
2023-05-10T05:58:53.890Z,101029.91
2023-05-10T06:01:20.583Z,101030.63
2023-05-10T06:03:47.171Z,101036.53
2023-05-10T06:06:14.373Z,101028.59
2023-05-10T06:08:40.896Z,101032.94
2023-05-10T06:11:07.382Z,101035.34
2023-05-10T06:13:36.159Z,101038.75
2023-05-10T06:16:03.846Z,101045.69
2023-05-10T06:18:30.392Z,101047.00
2023-05-10T06:20:57.023Z,101048.41
2023-05-10T06:23:23.821Z,101045.06
2023-05-10T06:25:50.586Z,101043.00
2023-05-10T06:28:17.178Z,101051.06
2023-05-10T06:30:43.727Z,101046.72
2023-05-10T06:33:10.353Z,101049.03
2023-05-10T06:35:37.830Z,101046.31
2023-05-10T06:38:04.401Z,101056.84
2023-05-10T06:40:30.945Z,101061.44
2023-05-10T06:42:57.484Z,101065.84
2023-05-10T06:45:24.141Z,101063.44
2023-05-10T06:47:50.704Z,101064.28
2023-05-10T06:50:17.294Z,101065.34
2023-05-10T06:52:44.183Z,101060.78
2023-05-10T06:55:10.990Z,101061.28
2023-05-10T06:57:37.632Z,101062.84
2023-05-10T07:00:05.738Z,101060.78
2023-05-10T07:02:32.375Z,101063.28
2023-05-10T07:05:01.679Z,101064.16
2023-05-10T07:07:29.855Z,101063.53
2023-05-10T07:09:57.534Z,101069.03
2023-05-10T07:12:24.801Z,101064.97
2023-05-10T07:14:51.360Z,101070.16
2023-05-10T07:17:17.924Z,101077.78
2023-05-10T07:19:44.695Z,101071.16
2023-05-10T07:22:11.266Z,101070.63
2023-05-10T07:24:37.813Z,101075.53
2023-05-10T07:27:05.216Z,101077.44
2023-05-10T07:29:31.746Z,101074.84
2023-05-10T07:31:59.039Z,101079.47
2023-05-10T07:34:26.263Z,101078.00
2023-05-10T07:36:53.194Z,101081.19
2023-05-10T07:39:27.278Z,101086.78
2023-05-10T07:41:55.501Z,101087.19
2023-05-10T07:44:22.049Z,101083.16
2023-05-10T07:46:49.096Z,101082.13
2023-05-10T07:49:15.777Z,101080.31
2023-05-10T07:51:43.323Z,101079.66
2023-05-10T07:54:09.903Z,101089.59
2023-05-10T07:56:36.448Z,101089.34
2023-05-10T07:59:08.443Z,101088.94
2023-05-10T08:01:36.243Z,101091.31
2023-05-10T08:04:03.259Z,101093.38
2023-05-10T08:06:30.880Z,101099.50
2023-05-10T08:08:57.636Z,101102.88
2023-05-10T08:11:24.325Z,101107.28
2023-05-10T08:13:51.834Z,101107.63
2023-05-10T08:16:18.466Z,101109.56
2023-05-10T08:18:46.431Z,101101.72
2023-05-10T08:21:13.433Z,101101.56
2023-05-10T08:23:39.918Z,101111.31
2023-05-10T08:26:06.699Z,101113.09
2023-05-10T08:28:33.295Z,101110.91
2023-05-10T08:31:00.053Z,101113.81
2023-05-10T08:33:26.934Z,101110.13
2023-05-10T08:35:53.481Z,101113.88
2023-05-10T08:38:19.975Z,101124.69
2023-05-10T08:40:46.715Z,101119.47
2023-05-10T08:43:16.172Z,101127.19
2023-05-10T08:45:46.292Z,101122.03
2023-05-10T08:48:12.906Z,101129.94
2023-05-10T08:50:42.990Z,101131.97
2023-05-10T08:53:14.128Z,101137.53
2023-05-10T08:55:43.041Z,101142.97
2023-05-10T08:58:10.371Z,101142.72
2023-05-10T09:00:38.222Z,101140.31
2023-05-10T09:03:05.861Z,101143.91
2023-05-10T09:05:32.888Z,101147.78
2023-05-10T09:08:02.305Z,101158.84
2023-05-10T09:10:29.207Z,101156.91
2023-05-10T09:12:59.382Z,101159.13
2023-05-10T09:15:26.237Z,101165.75
2023-05-10T09:17:52.859Z,101172.19
2023-05-10T09:20:21.372Z,101164.41
2023-05-10T09:22:48.354Z,101174.94
2023-05-10T09:25:16.613Z,101171.94
2023-05-10T09:27:48.183Z,101175.81
2023-05-10T09:30:19.102Z,101178.19
2023-05-10T09:37:25.432Z,101176.50
2023-05-10T09:39:55.584Z,101187.44
2023-05-10T09:42:22.125Z,101198.06
2023-05-10T09:44:48.955Z,101190.63
2023-05-10T09:47:19.970Z,101196.78
2023-05-10T09:49:54.070Z,101195.31
2023-05-10T09:52:20.833Z,101191.97
2023-05-10T09:54:54.298Z,101200.25
2023-05-10T09:57:25.943Z,101205.44
2023-05-10T09:59:54.530Z,101204.03
2023-05-10T10:02:21.035Z,101201.06
2023-05-10T10:04:50.280Z,101208.00
2023-05-10T10:07:23.702Z,101211.69
2023-05-10T10:09:50.789Z,101206.38
2023-05-10T10:12:17.542Z,101209.03
2023-05-10T10:14:44.275Z,101210.28
2023-05-10T10:17:10.769Z,101214.56
2023-05-10T10:19:38.043Z,101220.97
2023-05-10T10:22:05.294Z,101216.13
2023-05-10T10:24:32.170Z,101222.47
2023-05-10T10:27:23.722Z,101224.03
2023-05-10T10:29:53.331Z,101222.91
2023-05-10T10:32:31.392Z,101220.69
2023-05-10T10:34:58.043Z,101227.25
2023-05-10T10:37:25.142Z,101221.00
2023-05-10T10:39:51.780Z,101218.22
2023-05-10T10:42:44.886Z,101218.06
2023-05-10T10:45:14.704Z,101215.59
2023-05-10T10:47:41.562Z,101213.81
2023-05-10T10:50:09.161Z,101214.81
2023-05-10T10:52:37.375Z,101216.84
2023-05-10T10:55:14.188Z,101215.34
2023-05-10T10:58:02.080Z,101212.41
2023-05-10T11:00:29.172Z,101220.13
2023-05-10T11:03:10.146Z,101231.09
2023-05-10T11:05:47.266Z,101212.72
2023-05-10T11:08:37.449Z,101210.63
2023-05-10T11:11:09.133Z,101216.06
2023-05-10T11:13:42.827Z,101220.03
2023-05-10T11:16:15.792Z,101229.13
2023-05-10T11:18:54.067Z,101225.56
2023-05-10T11:21:20.755Z,101221.53
2023-05-10T11:23:52.427Z,101218.00
2023-05-10T11:26:19.685Z,101223.75
2023-05-10T11:28:47.723Z,101228.59
2023-05-10T11:31:18.257Z,101227.75
2023-05-10T11:33:49.519Z,101230.94
2023-05-10T11:36:17.836Z,101232.41
2023-05-10T11:38:44.845Z,101231.16
2023-05-10T11:41:12.582Z,101235.16
2023-05-10T11:43:42.800Z,101231.91
2023-05-10T11:46:12.276Z,101231.03
2023-05-10T11:48:42.747Z,101242.13
2023-05-10T11:51:09.844Z,101240.69
2023-05-10T11:53:36.598Z,101239.66
2023-05-10T11:56:10.303Z,101238.97
2023-05-10T11:58:38.692Z,101237.47
2023-05-10T12:01:06.854Z,101242.91
2023-05-10T12:03:33.896Z,101246.59
2023-05-10T12:06:02.036Z,101248.13
2023-05-10T12:08:30.085Z,101253.38
2023-05-10T12:11:08.886Z,101244.22
2023-05-10T12:13:41.311Z,101247.16
2023-05-10T12:16:34.381Z,101243.00
2023-05-10T12:19:01.940Z,101243.22
2023-05-10T12:21:30.151Z,101250.34
2023-05-10T12:24:01.233Z,101247.09
2023-05-10T12:26:29.176Z,101240.84
2023-05-10T12:28:55.995Z,101240.56
2023-05-10T12:31:22.556Z,101243.44
2023-05-10T12:33:50.304Z,101247.84
2023-05-10T12:36:17.657Z,101237.34
2023-05-10T12:38:48.543Z,101244.31
2023-05-10T12:41:16.984Z,101247.09
2023-05-10T12:43:43.794Z,101249.22
2023-05-10T12:46:12.790Z,101246.03
2023-05-10T12:48:41.168Z,101253.47
2023-05-10T12:51:12.890Z,101249.97
2023-05-10T12:53:45.077Z,101257.94
2023-05-10T12:56:12.227Z,101255.09
2023-05-10T12:58:39.460Z,101254.13
2023-05-10T13:01:06.641Z,101258.03
2023-05-10T13:03:33.387Z,101265.13
2023-05-10T13:05:59.950Z,101267.94
2023-05-10T13:08:26.548Z,101266.09
2023-05-10T13:10:53.096Z,101263.22
2023-05-10T13:13:19.629Z,101273.19
2023-05-10T13:15:46.168Z,101267.31
2023-05-10T13:18:12.794Z,101269.03
2023-05-10T13:20:39.486Z,101266.78
2023-05-10T13:23:06.050Z,101270.91
2023-05-10T13:25:32.641Z,101273.44
2023-05-10T13:27:59.124Z,101272.16
2023-05-10T13:30:25.645Z,101277.47
2023-05-10T13:32:52.252Z,101274.75
2023-05-10T13:35:18.865Z,101270.81
2023-05-10T13:37:45.491Z,101274.84
2023-05-10T13:40:12.400Z,101268.75
2023-05-10T13:42:39.049Z,101278.28
2023-05-10T13:45:06.235Z,101273.56
2023-05-10T13:47:33.095Z,101280.00
2023-05-10T13:49:59.656Z,101279.81
2023-05-10T13:52:27.304Z,101277.66
2023-05-10T13:54:55.935Z,101277.22
2023-05-10T13:57:22.942Z,101280.34
2023-05-10T13:59:49.619Z,101279.41
2023-05-10T14:02:16.120Z,101280.28
2023-05-10T14:04:42.647Z,101281.75
2023-05-10T14:07:09.246Z,101284.94
2023-05-10T14:09:35.763Z,101280.88
2023-05-10T14:12:03.128Z,101287.25
2023-05-10T14:14:30.444Z,101280.59
2023-05-10T14:16:56.973Z,101285.19
2023-05-10T14:19:23.498Z,101279.63
2023-05-10T14:21:50.022Z,101279.81
2023-05-10T14:24:16.538Z,101272.16
2023-05-10T14:26:43.032Z,101267.72
2023-05-10T14:29:11.556Z,101268.63
2023-05-10T14:31:39.070Z,101273.13
2023-05-10T14:34:06.732Z,101261.34
2023-05-10T14:36:33.373Z,101267.75
2023-05-10T14:38:59.965Z,101265.81
2023-05-10T14:41:26.478Z,101266.78
2023-05-10T14:43:53.725Z,101267.50
2023-05-10T14:46:20.761Z,101269.97
2023-05-10T14:48:47.496Z,101271.69
2023-05-10T14:51:14.578Z,101271.94
2023-05-10T14:53:41.168Z,101274.09
2023-05-10T14:56:08.203Z,101276.41
2023-05-10T14:58:34.762Z,101265.59
2023-05-10T15:01:01.781Z,101270.59
2023-05-10T15:03:28.920Z,101261.59
2023-05-10T15:05:57.132Z,101275.34
2023-05-10T15:08:25.455Z,101261.22
2023-05-10T15:10:52.404Z,101267.63
2023-05-10T15:13:18.895Z,101266.44
2023-05-10T15:15:45.443Z,101265.00
2023-05-10T15:18:12.318Z,101262.84
2023-05-10T15:20:38.964Z,101267.91
2023-05-10T15:23:05.528Z,101270.03
2023-05-10T15:25:32.179Z,101270.16
2023-05-10T15:27:58.689Z,101274.72
2023-05-10T15:30:25.268Z,101277.59
2023-05-10T15:32:51.983Z,101277.31
2023-05-10T15:35:18.744Z,101284.81
2023-05-10T15:37:45.671Z,101284.47
2023-05-10T15:40:12.651Z,101289.06
2023-05-10T15:42:39.358Z,101295.63
2023-05-10T15:45:07.048Z,101295.59
2023-05-10T15:47:34.191Z,101301.94
2023-05-10T15:50:01.127Z,101300.69
2023-05-10T15:52:28.221Z,101301.19
2023-05-10T15:54:54.837Z,101300.38
2023-05-10T15:57:21.327Z,101315.00
2023-05-10T15:59:47.871Z,101313.25
2023-05-10T16:02:14.485Z,101313.97
2023-05-10T16:04:41.060Z,101313.97
2023-05-10T16:07:07.620Z,101308.59
2023-05-10T16:09:41.346Z,101313.25
2023-05-10T16:12:08.450Z,101311.81
2023-05-10T16:14:35.005Z,101316.41
2023-05-10T16:17:05.245Z,101326.59
2023-05-10T16:19:32.053Z,101324.34
2023-05-10T16:21:58.671Z,101322.53
2023-05-10T16:24:25.955Z,101325.19
2023-05-10T16:26:52.529Z,101328.13
2023-05-10T16:29:19.055Z,101335.28
2023-05-10T16:31:46.323Z,101336.72
2023-05-10T16:34:12.891Z,101335.06
2023-05-10T16:36:39.409Z,101341.63
2023-05-10T16:39:05.938Z,101337.00
2023-05-10T16:41:35.789Z,101345.53
2023-05-10T16:44:03.874Z,101338.78
2023-05-10T16:46:30.478Z,101343.72
2023-05-10T16:48:57.106Z,101344.59
2023-05-10T16:51:23.616Z,101348.16
2023-05-10T16:53:50.090Z,101349.78
2023-05-10T16:56:18.407Z,101347.16
2023-05-10T16:58:44.925Z,101349.81
2023-05-10T17:01:11.545Z,101347.94
2023-05-10T17:03:38.242Z,101345.34
2023-05-10T17:06:06.018Z,101347.84
2023-05-10T17:08:33.024Z,101348.53
2023-05-10T17:11:03.929Z,101345.88
2023-05-10T17:13:31.115Z,101354.56
2023-05-10T17:15:57.899Z,101356.72
2023-05-10T17:18:24.786Z,101355.25
2023-05-10T17:20:51.489Z,101348.91
2023-05-10T17:23:18.022Z,101355.59
2023-05-10T17:25:44.643Z,101355.00
2023-05-10T17:28:11.183Z,101352.69
2023-05-10T17:30:37.897Z,101361.81
2023-05-10T17:33:05.224Z,101360.25
2023-05-10T17:35:32.077Z,101360.53
2023-05-10T17:37:58.631Z,101357.16
2023-05-10T17:40:25.135Z,101363.00
2023-05-10T17:42:52.095Z,101363.84
2023-05-10T17:45:18.999Z,101363.75
2023-05-10T17:47:46.320Z,101370.56
2023-05-10T17:50:12.918Z,101366.69
2023-05-10T17:52:39.511Z,101368.16
2023-05-10T17:55:06.616Z,101366.28
2023-05-10T17:57:33.386Z,101367.97
2023-05-10T18:00:00.051Z,101361.81
2023-05-10T18:02:26.896Z,101362.91
2023-05-10T18:04:53.599Z,101360.75
2023-05-10T18:07:22.847Z,101363.09
2023-05-10T18:09:49.636Z,101363.69
2023-05-10T18:12:16.497Z,101358.28
2023-05-10T18:14:43.018Z,101368.25
2023-05-10T18:17:09.878Z,101368.16
2023-05-10T18:19:36.659Z,101370.56
2023-05-10T18:22:03.254Z,101376.25
2023-05-10T18:24:39.164Z,101380.94
2023-05-10T18:27:09.836Z,101378.72
2023-05-10T18:29:37.029Z,101376.38
2023-05-10T18:32:03.787Z,101382.50
2023-05-10T18:34:30.366Z,101378.63
2023-05-10T18:36:57.028Z,101381.78
2023-05-10T18:39:24.355Z,101390.31
2023-05-10T18:41:51.118Z,101383.16
2023-05-10T18:44:18.936Z,101390.66
2023-05-10T18:46:45.654Z,101383.31
2023-05-10T18:49:12.177Z,101386.00
2023-05-10T18:51:38.679Z,101390.84
2023-05-10T18:54:05.220Z,101389.09
2023-05-10T18:56:31.763Z,101393.88
2023-05-10T18:58:58.392Z,101396.59
2023-05-10T19:01:25.005Z,101396.84
2023-05-10T19:03:51.736Z,101404.38
2023-05-10T19:06:18.302Z,101403.34
2023-05-10T19:08:44.863Z,101406.00
2023-05-10T19:11:11.401Z,101409.06
2023-05-10T19:13:38.223Z,101410.75
2023-05-10T19:16:14.994Z,101410.16
2023-05-10T19:18:44.811Z,101411.69
2023-05-10T19:21:11.462Z,101421.72
2023-05-10T19:23:40.428Z,101425.31
2023-05-10T19:26:08.034Z,101425.47
2023-05-10T19:28:35.952Z,101419.06
2023-05-10T19:31:02.568Z,101423.91
2023-05-10T19:33:29.641Z,101427.47
2023-05-10T19:35:56.369Z,101432.94
2023-05-10T19:38:24.188Z,101431.38
2023-05-10T19:40:57.427Z,101430.53
2023-05-10T19:43:28.811Z,101434.19
2023-05-10T19:45:58.345Z,101437.63
2023-05-10T19:48:25.357Z,101438.50
2023-05-10T19:50:52.881Z,101441.09
2023-05-10T19:53:19.506Z,101444.91
2023-05-10T19:55:46.233Z,101450.53
2023-05-10T19:58:12.761Z,101441.75
2023-05-10T20:00:39.293Z,101444.41
2023-05-10T20:03:08.420Z,101440.97
2023-05-10T20:05:35.837Z,101433.13
2023-05-10T20:08:02.499Z,101445.72
2023-05-10T20:10:29.057Z,101445.72
2023-05-10T20:12:55.591Z,101440.50
2023-05-10T20:15:23.277Z,101449.63
2023-05-10T20:17:51.217Z,101444.22
2023-05-10T20:20:18.236Z,101447.19
2023-05-10T20:22:45.276Z,101445.53
2023-05-10T20:25:12.353Z,101449.84
2023-05-10T20:27:38.920Z,101444.09
2023-05-10T20:30:06.246Z,101446.91
2023-05-10T20:32:33.987Z,101445.94
2023-05-10T20:35:00.534Z,101445.09
2023-05-10T20:37:28.058Z,101451.50
2023-05-10T20:39:55.530Z,101445.88
2023-05-10T20:42:22.403Z,101448.75
2023-05-10T20:44:49.637Z,101450.75
2023-05-10T20:47:16.703Z,101450.06
2023-05-10T20:49:43.815Z,101446.56
2023-05-10T20:52:10.341Z,101448.19
2023-05-10T20:54:36.850Z,101448.09
2023-05-10T20:57:03.463Z,101445.34
2023-05-10T20:59:30.121Z,101447.84
2023-05-10T21:01:57.456Z,101453.16
2023-05-10T21:04:25.692Z,101455.72
2023-05-10T21:06:53.051Z,101450.56
2023-05-10T21:09:19.719Z,101451.56
2023-05-10T21:11:46.285Z,101446.25
2023-05-10T21:14:12.838Z,101463.25
2023-05-10T21:16:39.418Z,101458.03
2023-05-10T21:19:07.452Z,101458.88
2023-05-10T21:21:34.367Z,101458.94
2023-05-10T21:24:01.194Z,101460.91
2023-05-10T21:26:27.820Z,101450.44
2023-05-10T21:28:54.437Z,101464.47
2023-05-10T21:31:21.397Z,101445.31
2023-05-10T21:33:47.962Z,101448.13
2023-05-10T21:36:14.598Z,101444.59
2023-05-10T21:38:42.312Z,101443.72
2023-05-10T21:41:08.840Z,101443.09
2023-05-10T21:43:35.504Z,101441.50
2023-05-10T21:46:02.143Z,101448.59
2023-05-10T21:48:28.751Z,101453.06
2023-05-10T21:50:55.338Z,101450.53
2023-05-10T21:53:22.411Z,101443.50
2023-05-10T21:55:49.038Z,101443.72
2023-05-10T21:58:15.883Z,101441.06
2023-05-10T22:00:42.397Z,101448.09
2023-05-10T22:03:09.030Z,101446.22
2023-05-10T22:05:35.673Z,101444.38
2023-05-10T22:08:02.179Z,101443.50
2023-05-10T22:10:28.753Z,101445.31
2023-05-10T22:12:55.324Z,101443.44
2023-05-10T22:15:22.106Z,101445.16
2023-05-10T22:17:48.948Z,101442.59
2023-05-10T22:20:15.788Z,101445.25
2023-05-10T22:22:42.584Z,101452.28
2023-05-10T22:25:09.310Z,101446.97
2023-05-10T22:27:36.336Z,101443.50
2023-05-10T22:30:03.926Z,101447.09
2023-05-10T22:32:31.615Z,101447.03
2023-05-10T22:34:58.318Z,101446.09
2023-05-10T22:37:24.856Z,101453.97
2023-05-10T22:39:51.448Z,101453.91
2023-05-10T22:42:17.995Z,101449.56
2023-05-10T22:44:44.588Z,101445.25
2023-05-10T22:47:11.210Z,101451.63
2023-05-10T22:49:37.910Z,101449.81
2023-05-10T22:52:04.623Z,101452.38
2023-05-10T22:54:31.147Z,101452.38
2023-05-10T22:56:57.722Z,101447.97
2023-05-10T22:59:24.262Z,101445.38
2023-05-10T23:01:51.067Z,101455.25
2023-05-10T23:04:18.266Z,101457.91
2023-05-10T23:06:45.859Z,101459.56
2023-05-10T23:09:12.388Z,101455.94
2023-05-10T23:11:38.921Z,101451.47
2023-05-10T23:14:05.430Z,101455.84
2023-05-10T23:16:32.021Z,101447.97
2023-05-10T23:18:58.790Z,101443.59
2023-05-10T23:21:25.396Z,101447.03
2023-05-10T23:23:52.439Z,101447.16
2023-05-10T23:26:19.249Z,101446.22
2023-05-10T23:28:45.862Z,101437.34
2023-05-10T23:31:12.350Z,101447.03
2023-05-10T23:33:38.932Z,101451.47
2023-05-10T23:36:05.737Z,101448.03
2023-05-10T23:38:32.618Z,101448.88
2023-05-10T23:40:59.141Z,101447.31
2023-05-10T23:43:25.921Z,101450.09
2023-05-10T23:45:54.018Z,101448.63
2023-05-10T23:48:20.914Z,101447.03
2023-05-10T23:50:47.882Z,101455.13
2023-05-10T23:53:14.438Z,101458.50
2023-05-10T23:55:40.966Z,101459.44
2023-05-10T23:58:07.757Z,101447.84
